createdAt,value
2022-08-11T00:01:23.439Z,2.93
2022-08-11T00:03:57.165Z,2.53
2022-08-11T00:06:28.349Z,3.37
2022-08-11T00:08:57.883Z,3.10
2022-08-11T00:11:36.364Z,2.40
2022-08-11T00:14:05.789Z,2.67
2022-08-11T00:16:34.700Z,2.60
2022-08-11T00:19:03.968Z,2.67
2022-08-11T00:22:04.707Z,2.47
2022-08-11T00:24:22.663Z,2.63
2022-08-11T00:26:53.679Z,2.60
2022-08-11T00:29:23.263Z,2.20
2022-08-11T00:31:53.895Z,2.30
2022-08-11T00:34:25.992Z,2.40
2022-08-11T00:36:58.771Z,2.40
2022-08-11T00:39:29.186Z,2.40
2022-08-11T00:42:11.245Z,3.00
2022-08-11T00:44:54.686Z,2.30
2022-08-11T00:47:36.403Z,2.47
2022-08-11T00:50:15.168Z,2.53
2022-08-11T00:53:00.122Z,2.50
2022-08-11T00:55:47.198Z,2.30
2022-08-11T00:59:04.421Z,4.73
2022-08-11T01:02:14.536Z,3.07
2022-08-11T01:05:24.437Z,3.10
2022-08-11T01:08:25.873Z,2.50
2022-08-11T01:11:14.039Z,2.40
2022-08-11T01:14:12.481Z,3.23
2022-08-11T01:17:09.555Z,2.83
2022-08-11T01:20:45.969Z,2.37
2022-08-11T01:23:08.887Z,2.10
2022-08-11T01:26:02.333Z,3.10
2022-08-11T01:29:25.958Z,2.80
2022-08-11T01:32:40.196Z,2.40
2022-08-11T01:35:39.026Z,3.00
2022-08-11T01:38:37.085Z,2.37
2022-08-11T01:42:00.604Z,2.20
2022-08-11T01:45:13.397Z,2.73
2022-08-11T01:47:54.524Z,2.60
2022-08-11T01:50:36.699Z,2.33
2022-08-11T01:53:16.793Z,2.90
2022-08-11T01:55:53.425Z,2.30
2022-08-11T01:58:43.958Z,2.90
2022-08-11T02:01:33.507Z,2.53
2022-08-11T02:04:17.175Z,2.73
2022-08-11T02:06:57.457Z,2.90
2022-08-11T02:09:42.138Z,2.80
2022-08-11T02:12:46.087Z,2.43
2022-08-11T02:15:28.132Z,2.47
2022-08-11T02:18:05.214Z,2.60
2022-08-11T02:21:04.715Z,2.97
2022-08-11T02:24:05.622Z,2.53
2022-08-11T02:26:37.555Z,2.10
2022-08-11T02:29:14.519Z,2.87
2022-08-11T02:32:23.792Z,2.70
2022-08-11T02:35:09.579Z,2.80
2022-08-11T02:37:47.024Z,2.60
2022-08-11T02:40:32.444Z,2.90
2022-08-11T02:43:12.540Z,2.67
2022-08-11T02:45:54.498Z,2.97
2022-08-11T02:49:10.622Z,3.00
2022-08-11T02:51:45.759Z,2.70
2022-08-11T02:54:22.383Z,2.43
2022-08-11T02:56:58.278Z,2.67
2022-08-11T02:59:54.554Z,2.57
2022-08-11T03:02:35.005Z,2.80
2022-08-11T03:05:17.766Z,3.13
2022-08-11T03:08:02.634Z,2.77
2022-08-11T03:10:38.039Z,2.83
2022-08-11T03:13:33.754Z,2.80
2022-08-11T03:16:32.325Z,2.50
2022-08-11T03:19:12.737Z,3.30
2022-08-11T03:22:03.214Z,3.00
2022-08-11T03:24:45.454Z,2.83
2022-08-11T03:27:29.855Z,2.73
2022-08-11T03:30:08.918Z,2.33
2022-08-11T03:32:43.951Z,2.63
2022-08-11T03:35:16.913Z,2.73
2022-08-11T03:38:00.734Z,3.10
2022-08-11T03:42:01.788Z,2.80
2022-08-11T03:44:33.891Z,3.07
2022-08-11T03:47:16.702Z,2.97
2022-08-11T03:49:57.674Z,2.90
2022-08-11T03:52:38.451Z,2.97
2022-08-11T03:55:16.765Z,3.03
2022-08-11T03:58:17.995Z,2.57
2022-08-11T04:01:15.606Z,2.97
2022-08-11T04:04:05.526Z,3.03
2022-08-11T04:07:00.013Z,2.77
2022-08-11T04:10:06.485Z,3.03
2022-08-11T04:13:10.407Z,2.87
2022-08-11T04:16:11.777Z,3.20
2022-08-11T04:19:21.177Z,2.97
2022-08-11T04:22:41.033Z,2.70
2022-08-11T04:25:31.004Z,3.13
2022-08-11T04:28:31.323Z,3.77
2022-08-11T04:31:51.830Z,2.70
2022-08-11T04:34:46.899Z,2.97
2022-08-11T04:37:35.921Z,2.63
2022-08-11T04:40:41.074Z,2.93
2022-08-11T04:44:02.887Z,2.77
2022-08-11T04:46:58.243Z,3.50
2022-08-11T04:50:19.152Z,2.67
2022-08-11T04:53:46.393Z,2.73
2022-08-11T04:56:41.340Z,2.57
2022-08-11T04:59:52.829Z,2.40
2022-08-11T05:02:58.893Z,2.80
2022-08-11T05:05:56.637Z,2.72
2022-08-11T05:09:04.590Z,2.60
2022-08-11T05:11:46.706Z,3.22
2022-08-11T05:14:50.492Z,3.00
2022-08-11T05:17:53.476Z,3.20
2022-08-11T05:20:41.192Z,2.40
2022-08-11T05:23:29.603Z,2.28
2022-08-11T05:26:47.815Z,3.15
2022-08-11T05:29:45.364Z,2.40
2022-08-11T05:32:36.287Z,2.33
2022-08-11T05:35:08.744Z,3.13
2022-08-11T05:37:57.598Z,2.38
2022-08-11T05:40:50.911Z,3.10
2022-08-11T05:44:19.646Z,3.03
2022-08-11T05:47:06.482Z,2.78
2022-08-11T05:49:53.103Z,3.03
2022-08-11T05:52:42.927Z,2.70
2022-08-11T05:55:30.139Z,2.42
2022-08-11T05:58:03.500Z,2.30
2022-08-11T06:00:34.023Z,2.90
2022-08-11T06:03:07.414Z,2.85
2022-08-11T06:05:43.318Z,4.22
2022-08-11T06:08:14.092Z,3.28
2022-08-11T06:10:44.065Z,2.30
2022-08-11T06:13:17.979Z,2.70
2022-08-11T06:15:48.171Z,2.97
2022-08-11T06:18:17.505Z,2.38
2022-08-11T06:20:48.862Z,2.53
2022-08-11T06:23:19.475Z,2.58
2022-08-11T06:25:48.176Z,2.63
2022-08-11T06:28:21.380Z,2.53
2022-08-11T06:30:50.390Z,2.85
2022-08-11T06:33:20.844Z,2.90
2022-08-11T06:35:58.430Z,2.70
2022-08-11T06:38:51.113Z,3.33
2022-08-11T06:41:32.336Z,2.55
2022-08-11T06:44:23.809Z,2.95
2022-08-11T06:46:56.137Z,2.70
2022-08-11T06:49:51.046Z,2.97
2022-08-11T06:52:34.219Z,2.88
2022-08-11T06:55:55.884Z,2.83
2022-08-11T06:58:15.893Z,2.65
2022-08-11T07:00:47.233Z,2.60
2022-08-11T07:03:20.237Z,2.90
2022-08-11T07:05:54.724Z,2.58
2022-08-11T07:09:28.441Z,2.75
2022-08-11T07:12:32.425Z,2.70
2022-08-11T07:15:22.387Z,2.92
2022-08-11T07:18:14.300Z,2.40
2022-08-11T07:21:02.348Z,2.50
2022-08-11T07:23:52.939Z,2.55
2022-08-11T07:26:40.861Z,2.60
2022-08-11T07:29:11.014Z,2.75
2022-08-11T07:31:44.287Z,2.83
2022-08-11T07:34:22.831Z,3.40
2022-08-11T07:36:53.432Z,2.53
2022-08-11T07:39:23.462Z,2.83
2022-08-11T07:41:54.079Z,2.90
2022-08-11T07:44:28.344Z,2.63
2022-08-11T07:47:19.253Z,2.50
2022-08-11T07:50:09.350Z,2.80
2022-08-11T07:52:40.669Z,2.70
2022-08-11T07:55:13.937Z,2.80
2022-08-11T07:58:16.938Z,2.78
2022-08-11T08:01:22.259Z,2.70
2022-08-11T08:04:09.399Z,2.55
2022-08-11T08:06:57.789Z,2.20
2022-08-11T08:09:44.026Z,2.60
2022-08-11T08:12:31.197Z,2.65
2022-08-11T08:15:17.429Z,2.50
2022-08-11T08:18:20.921Z,2.75
2022-08-11T08:20:48.062Z,2.90
2022-08-11T08:23:18.140Z,2.17
2022-08-11T08:25:48.793Z,2.30
2022-08-11T08:28:18.731Z,2.63
2022-08-11T08:30:52.692Z,2.35
2022-08-11T08:33:23.339Z,1.95
2022-08-11T08:36:11.564Z,2.67
2022-08-11T08:38:44.577Z,2.05
2022-08-11T08:41:16.655Z,2.28
2022-08-11T08:43:50.136Z,2.38
2022-08-11T08:46:23.233Z,2.10
2022-08-11T08:48:53.310Z,2.17
2022-08-11T08:52:01.267Z,2.13
2022-08-11T08:54:46.203Z,2.03
2022-08-11T08:57:20.027Z,1.92
2022-08-11T08:59:51.616Z,2.40
2022-08-11T09:02:34.046Z,2.28
2022-08-11T09:05:09.119Z,2.00
2022-08-11T09:07:39.495Z,2.58
2022-08-11T09:10:11.823Z,2.38
2022-08-11T09:12:42.582Z,1.85
2022-08-11T09:15:12.608Z,1.60
2022-08-11T09:17:42.812Z,1.88
2022-08-11T09:20:14.653Z,1.92
2022-08-11T09:23:41.700Z,1.52
2022-08-11T09:26:13.741Z,2.00
2022-08-11T09:28:44.056Z,2.53
2022-08-11T09:31:13.412Z,2.67
2022-08-11T09:33:43.108Z,2.92
2022-08-11T09:36:30.870Z,2.30
2022-08-11T09:39:18.968Z,1.70
2022-08-11T09:42:00.994Z,1.73
2022-08-11T09:44:48.805Z,1.58
2022-08-11T09:47:24.502Z,2.10
2022-08-11T09:49:56.253Z,1.90
2022-08-11T09:52:26.077Z,1.77
2022-08-11T09:54:56.454Z,1.85
2022-08-11T09:57:45.583Z,1.77
2022-08-11T10:00:16.764Z,1.73
2022-08-11T10:02:47.849Z,1.80
2022-08-11T10:05:36.901Z,1.63
2022-08-11T10:08:10.212Z,2.10
2022-08-11T10:10:40.720Z,1.88
2022-08-11T10:14:31.121Z,2.25
2022-08-11T10:16:15.192Z,1.95
2022-08-11T10:18:52.755Z,2.00
2022-08-11T10:21:29.515Z,2.20
2022-08-11T10:24:18.202Z,2.58
2022-08-11T10:27:03.555Z,1.80
2022-08-11T10:29:55.147Z,1.85
2022-08-11T10:32:57.423Z,1.98
2022-08-11T10:35:36.366Z,2.10
2022-08-11T10:38:07.828Z,2.03
2022-08-11T10:40:39.920Z,1.90
2022-08-11T10:43:14.114Z,1.90
2022-08-11T10:46:04.596Z,1.88
2022-08-11T10:48:38.818Z,2.00
2022-08-11T10:51:14.441Z,2.20
2022-08-11T10:54:05.201Z,1.80
2022-08-11T10:56:54.583Z,2.22
2022-08-11T10:59:24.146Z,2.47
2022-08-11T11:01:54.414Z,2.20
2022-08-11T11:04:28.821Z,2.10
2022-08-11T11:07:07.429Z,2.08
2022-08-11T11:09:41.734Z,2.13
2022-08-11T11:12:32.482Z,1.85
2022-08-11T11:15:21.318Z,1.73
2022-08-11T11:17:57.644Z,2.10
2022-08-11T11:20:37.833Z,1.70
2022-08-11T11:23:12.818Z,1.75
2022-08-11T11:26:10.199Z,2.20
2022-08-11T11:29:15.246Z,1.40
2022-08-11T11:31:55.059Z,1.70
2022-08-11T11:34:52.800Z,1.80
2022-08-11T11:37:23.508Z,2.20
2022-08-11T11:39:52.660Z,1.80
2022-08-11T11:42:22.595Z,1.80
2022-08-11T11:44:55.334Z,1.40
2022-08-11T11:47:24.898Z,1.80
2022-08-11T11:49:54.945Z,1.77
2022-08-11T11:52:23.521Z,1.60
2022-08-11T11:54:55.587Z,1.98
2022-08-11T11:57:41.617Z,1.70
2022-08-11T12:00:44.516Z,2.00
2022-08-11T12:03:13.397Z,1.80
2022-08-11T12:05:44.741Z,2.28
2022-08-11T12:08:16.521Z,1.70
2022-08-11T12:10:47.735Z,1.73
2022-08-11T12:13:35.217Z,2.10
2022-08-11T12:16:32.299Z,1.63
2022-08-11T12:18:56.527Z,1.70
2022-08-11T12:21:27.410Z,1.52
2022-08-11T12:24:15.178Z,1.70
2022-08-11T12:27:16.626Z,1.70
2022-08-11T12:29:54.379Z,1.88
2022-08-11T12:32:25.456Z,1.85
2022-08-11T12:34:53.659Z,1.92
2022-08-11T12:37:30.532Z,1.30
2022-08-11T12:40:42.930Z,1.70
2022-08-11T12:43:37.268Z,1.70
2022-08-11T12:46:10.686Z,1.88
2022-08-11T12:49:03.039Z,2.00
2022-08-11T12:52:12.484Z,1.88
2022-08-11T12:54:52.727Z,1.80
2022-08-11T12:57:48.334Z,1.70
2022-08-11T13:00:35.223Z,1.50
2022-08-11T13:03:22.197Z,1.42
2022-08-11T13:05:53.486Z,1.73
2022-08-11T13:08:23.492Z,1.63
2022-08-11T13:11:12.126Z,2.10
2022-08-11T13:13:53.583Z,1.80
2022-08-11T13:16:26.259Z,1.50
2022-08-11T13:18:54.468Z,1.83
2022-08-11T13:21:23.955Z,1.65
2022-08-11T13:24:00.999Z,1.95
2022-08-11T13:26:39.234Z,1.65
2022-08-11T13:29:16.812Z,2.33
2022-08-11T13:31:44.961Z,1.88
2022-08-11T13:34:13.396Z,1.83
2022-08-11T13:36:42.664Z,1.63
2022-08-11T13:39:11.506Z,2.08
2022-08-11T13:41:44.737Z,1.85
2022-08-11T13:44:15.822Z,2.08
2022-08-11T13:46:47.194Z,2.88
2022-08-11T13:49:17.736Z,1.90
2022-08-11T13:51:46.255Z,1.88
2022-08-11T13:54:19.209Z,1.88
2022-08-11T13:56:51.288Z,1.90
2022-08-11T13:59:23.838Z,1.95
2022-08-11T14:02:22.167Z,2.17
2022-08-11T14:04:56.230Z,2.15
2022-08-11T14:07:28.529Z,1.50
2022-08-11T14:09:59.736Z,2.10
2022-08-11T14:12:49.665Z,1.40
2022-08-11T14:15:21.416Z,1.60
2022-08-11T14:17:54.881Z,1.75
2022-08-11T14:20:39.723Z,1.92
2022-08-11T14:23:10.957Z,1.88
2022-08-11T14:26:02.491Z,1.50
2022-08-11T14:28:40.231Z,1.90
2022-08-11T14:31:13.354Z,1.73
2022-08-11T14:33:59.798Z,1.83
2022-08-11T14:36:33.861Z,1.98
2022-08-11T14:39:08.011Z,2.10
2022-08-11T14:42:10.008Z,1.75
2022-08-11T14:45:03.032Z,1.75
2022-08-11T14:47:34.596Z,1.80
2022-08-11T14:50:11.465Z,1.60
2022-08-11T14:52:45.431Z,1.80
2022-08-11T14:55:32.050Z,1.55
2022-08-11T14:58:01.774Z,1.75
2022-08-11T15:00:31.965Z,1.77
2022-08-11T15:03:12.946Z,1.80
2022-08-11T15:05:56.092Z,1.67
2022-08-11T15:08:42.500Z,1.58
2022-08-11T15:11:26.875Z,1.85
2022-08-11T15:13:58.123Z,2.20
2022-08-11T15:16:45.800Z,2.20
2022-08-11T15:19:15.770Z,2.38
2022-08-11T15:22:01.521Z,2.05
2022-08-11T15:24:30.843Z,2.03
2022-08-11T15:27:19.663Z,2.33
2022-08-11T15:30:06.317Z,1.92
2022-08-11T15:32:54.314Z,1.80
2022-08-11T15:35:40.063Z,2.65
2022-08-11T15:38:09.093Z,1.92
2022-08-11T15:40:57.834Z,1.60
2022-08-11T15:44:03.050Z,1.83
2022-08-11T15:46:33.216Z,1.65
2022-08-11T15:49:05.261Z,2.17
2022-08-11T15:51:37.356Z,2.10
2022-08-11T15:54:09.650Z,1.77
2022-08-11T15:56:40.870Z,2.25
2022-08-11T15:59:43.151Z,1.75
2022-08-11T16:02:32.761Z,1.70
2022-08-11T16:05:05.154Z,2.00
2022-08-11T16:07:38.433Z,1.50
2022-08-11T16:10:12.324Z,2.00
2022-08-11T16:13:20.281Z,1.70
2022-08-11T16:16:08.866Z,1.90
2022-08-11T16:18:42.537Z,2.20
2022-08-11T16:21:33.789Z,1.65
2022-08-11T16:24:04.714Z,2.10
2022-08-11T16:27:08.679Z,1.58
2022-08-11T16:29:25.025Z,1.63
2022-08-11T16:32:08.120Z,1.80
2022-08-11T16:34:55.715Z,1.98
2022-08-11T16:37:44.465Z,2.75
2022-08-11T16:40:14.599Z,2.20
2022-08-11T16:43:10.049Z,1.67
2022-08-11T16:45:59.518Z,1.98
2022-08-11T16:48:36.453Z,2.28
2022-08-11T16:51:06.725Z,2.20
2022-08-11T16:54:00.053Z,2.33
2022-08-11T16:56:33.604Z,2.15
2022-08-11T16:59:14.949Z,1.90
2022-08-11T17:01:47.065Z,2.50
2022-08-11T17:04:39.725Z,2.30
2022-08-11T17:07:42.198Z,2.13
2022-08-11T17:10:51.753Z,2.20
2022-08-11T17:13:30.055Z,2.13
2022-08-11T17:16:08.670Z,2.75
2022-08-11T17:18:44.159Z,1.98
2022-08-11T17:21:21.521Z,2.55
2022-08-11T17:23:52.702Z,1.92
2022-08-11T17:26:49.554Z,2.40
2022-08-11T17:29:19.588Z,2.05
2022-08-11T17:32:06.946Z,2.33
2022-08-11T17:34:53.569Z,1.83
2022-08-11T17:37:24.232Z,1.80
2022-08-11T17:39:53.414Z,2.20
2022-08-11T17:42:45.452Z,2.15
2022-08-11T17:45:32.855Z,2.42
2022-08-11T17:48:20.079Z,1.80
2022-08-11T17:50:50.355Z,2.13
2022-08-11T17:53:37.417Z,1.80
2022-08-11T17:56:24.212Z,2.60
2022-08-11T17:59:12.692Z,2.80
2022-08-11T18:01:45.216Z,2.05
2022-08-11T18:04:22.395Z,1.98
2022-08-11T18:06:53.816Z,1.88
2022-08-11T18:09:41.540Z,1.98
2022-08-11T18:12:28.919Z,2.38
2022-08-11T18:15:16.364Z,2.08
2022-08-11T18:18:02.287Z,1.95
2022-08-11T18:20:48.641Z,1.50
2022-08-11T18:23:41.846Z,2.35
2022-08-11T18:26:36.338Z,1.75
2022-08-11T18:29:23.278Z,2.20
2022-08-11T18:32:12.687Z,2.00
2022-08-11T18:35:09.277Z,1.90
2022-08-11T18:37:56.359Z,2.15
2022-08-11T18:40:46.238Z,2.15
2022-08-11T18:43:35.474Z,2.25
2022-08-11T18:46:24.891Z,2.00
2022-08-11T18:49:17.896Z,2.25
2022-08-11T18:52:06.486Z,2.70
2022-08-11T18:54:55.501Z,2.00
2022-08-11T18:57:50.113Z,2.50
2022-08-11T19:00:41.791Z,2.25
2022-08-11T19:03:29.587Z,2.10
2022-08-11T19:06:39.290Z,2.53
2022-08-11T19:09:31.643Z,2.50
2022-08-11T19:12:18.933Z,3.05
2022-08-11T19:15:06.435Z,2.58
2022-08-11T19:17:54.786Z,2.45
2022-08-11T19:20:43.750Z,2.35
2022-08-11T19:23:33.863Z,2.28
2022-08-11T19:26:21.212Z,2.50
2022-08-11T19:29:09.251Z,2.27
2022-08-11T19:32:15.331Z,2.80
2022-08-11T19:35:00.861Z,2.33
2022-08-11T19:37:47.381Z,2.70
2022-08-11T19:40:35.654Z,2.63
2022-08-11T19:43:26.122Z,2.30
2022-08-11T19:46:15.445Z,2.70
2022-08-11T19:49:03.184Z,2.60
2022-08-11T19:51:53.415Z,3.03
2022-08-11T19:54:43.092Z,2.67
2022-08-11T19:57:34.532Z,2.57
2022-08-11T20:00:25.151Z,1.87
2022-08-11T20:03:15.891Z,2.43
2022-08-11T20:06:02.098Z,2.23
2022-08-11T20:08:48.686Z,2.80
2022-08-11T20:11:36.772Z,2.47
2022-08-11T20:14:25.393Z,2.03
2022-08-11T20:17:13.201Z,2.03
2022-08-11T20:22:51.425Z,1.90
2022-08-11T20:25:39.562Z,2.20
2022-08-11T20:28:26.699Z,2.47
2022-08-11T20:31:15.080Z,2.03
2022-08-11T20:34:01.469Z,2.43
2022-08-11T20:36:53.922Z,2.30
2022-08-11T20:39:41.798Z,2.17
2022-08-11T20:42:34.924Z,1.97
2022-08-11T20:45:23.407Z,1.93
2022-08-11T20:48:14.501Z,2.20
2022-08-11T20:51:01.957Z,2.33
2022-08-11T20:53:54.018Z,2.00
2022-08-11T20:56:41.523Z,2.63
2022-08-11T20:59:30.067Z,1.87
2022-08-11T21:02:20.149Z,2.00
2022-08-11T21:05:07.030Z,2.30
2022-08-11T21:07:57.283Z,2.13
2022-08-11T21:10:46.989Z,2.50
2022-08-11T21:13:34.442Z,2.70
2022-08-11T21:16:27.202Z,2.70
2022-08-11T21:19:54.510Z,2.70
2022-08-11T21:22:31.845Z,2.60
2022-08-11T21:25:18.314Z,2.13
2022-08-11T21:28:05.889Z,2.53
2022-08-11T21:30:55.782Z,2.13
2022-08-11T21:33:45.293Z,2.60
2022-08-11T21:36:30.881Z,2.17
2022-08-11T21:39:18.866Z,1.87
2022-08-11T21:42:09.394Z,2.60
2022-08-11T21:44:55.828Z,2.30
2022-08-11T21:47:44.304Z,2.27
2022-08-11T21:50:30.356Z,2.10
2022-08-11T21:53:17.205Z,2.40
2022-08-11T21:56:04.642Z,2.70
2022-08-11T21:58:51.853Z,1.67
2022-08-11T22:01:37.495Z,2.00
2022-08-11T22:04:24.301Z,2.30
2022-08-11T22:07:10.805Z,2.20
2022-08-11T22:09:56.810Z,2.30
2022-08-11T22:12:45.240Z,2.50
2022-08-11T22:15:32.100Z,2.23
2022-08-11T22:18:19.302Z,2.07
2022-08-11T22:21:04.811Z,2.40
2022-08-11T22:23:54.349Z,2.40
2022-08-11T22:26:41.279Z,2.40
2022-08-11T22:29:38.226Z,2.70
2022-08-11T22:32:36.451Z,2.40
2022-08-11T22:35:22.662Z,2.20
2022-08-11T22:38:08.775Z,2.50
2022-08-11T22:40:55.443Z,2.50
2022-08-11T22:43:40.798Z,2.63
2022-08-11T22:46:27.835Z,2.27
2022-08-11T22:49:14.696Z,3.00
2022-08-11T22:52:01.923Z,2.00
2022-08-11T22:54:48.941Z,2.37
2022-08-11T22:57:34.932Z,2.50
2022-08-11T23:00:20.998Z,2.10
2022-08-11T23:03:08.624Z,2.33
2022-08-11T23:05:59.094Z,2.10
2022-08-11T23:08:45.148Z,2.10
2022-08-11T23:12:06.701Z,2.23
2022-08-11T23:14:40.486Z,1.83
2022-08-11T23:17:27.100Z,2.00
2022-08-11T23:20:35.862Z,2.40
2022-08-11T23:23:21.889Z,1.87
2022-08-11T23:26:11.295Z,2.33
2022-08-11T23:28:59.324Z,3.10
2022-08-11T23:31:52.548Z,2.20
2022-08-11T23:35:02.460Z,2.33
2022-08-11T23:37:46.561Z,2.90
2022-08-11T23:40:32.121Z,2.33
2022-08-11T23:43:17.934Z,2.40
2022-08-11T23:46:03.250Z,2.60
2022-08-11T23:48:49.756Z,2.60
2022-08-11T23:51:41.346Z,2.37
2022-08-11T23:54:30.690Z,2.47
2022-08-11T23:57:18.484Z,2.27
